Time;durP1;ratioP1;P1;durP2;ratioP2;P2;SDS_P1;SDS_P2;PMS_P1;PMS_P2;Temp;Humidity;BMP_temperature;BMP_pressure;BME280_temperature;BME280_humidity;BME280_pressure;Samples;Min_cycle;Max_cycle;Signal;HPM_P1;HPM_P2
2021/05/31 00:01:49;;;;;;;2.95;2.72;;;20.30;55.40;;;;;;5054361;28;20651;-65
2021/05/31 00:04:14;;;;;;;3.45;3.15;;;20.30;55.40;;;;;;5055376;28;20215;-65
2021/05/31 00:07:04;;;;;;;3.20;2.90;;;20.30;55.40;;;;;;5055121;28;20195;-65
2021/05/31 00:09:30;;;;;;;2.72;2.53;;;20.30;55.40;;;;;;5054243;28;20232;-65
2021/05/31 00:11:56;;;;;;;2.70;2.50;;;20.30;55.50;;;;;;5055228;28;20175;-65
2021/05/31 00:14:21;;;;;;;2.90;2.70;;;20.20;55.40;;;;;;5055312;28;20519;-65
2021/05/31 00:16:47;;;;;;;3.40;3.15;;;20.30;55.50;;;;;;5054136;28;20622;-64
2021/05/31 00:19:14;;;;;;;3.30;2.75;;;20.30;55.50;;;;;;5055354;28;20689;-65
2021/05/31 00:21:39;;;;;;;3.17;2.88;;;20.20;55.40;;;;;;5054946;28;20190;-65
2021/05/31 00:24:05;;;;;;;2.85;2.65;;;20.20;55.50;;;;;;5053933;28;20662;-64
2021/05/31 00:26:30;;;;;;;2.75;2.53;;;20.20;55.50;;;;;;5054919;28;20176;-64
2021/05/31 00:28:56;;;;;;;3.38;3.05;;;20.20;55.50;;;;;;5054930;28;20220;-63
2021/05/31 00:31:21;;;;;;;3.22;3.03;;;20.20;55.50;;;;;;5054114;28;20190;-64
2021/05/31 00:33:47;;;;;;;2.50;2.30;;;20.20;55.60;;;;;;5054470;28;20233;-64
2021/05/31 00:36:12;;;;;;;3.17;2.92;;;20.20;55.60;;;;;;5054741;28;20305;-64
2021/05/31 00:38:40;;;;;;;2.72;2.53;;;20.20;55.50;;;;;;5053605;28;20534;-65
2021/05/31 00:41:06;;;;;;;3.40;3.10;;;20.20;55.60;;;;;;5054788;28;20179;-64
2021/05/31 00:43:34;;;;;;;3.35;3.05;;;20.20;55.60;;;;;;5054174;28;20260;-65
2021/05/31 00:46:03;;;;;;;2.88;2.67;;;20.20;55.50;;;;;;5054347;28;20227;-64
2021/05/31 00:48:29;;;;;;;3.72;3.42;;;20.20;55.60;;;;;;5054401;28;20638;-65
2021/05/31 00:50:56;;;;;;;3.40;3.10;;;20.20;55.60;;;;;;5053370;28;20229;-65
2021/05/31 00:53:21;;;;;;;3.42;2.63;;;20.20;55.60;;;;;;5054572;28;20236;-65
2021/05/31 00:55:47;;;;;;;3.38;3.08;;;20.20;55.60;;;;;;5053846;28;20175;-65
2021/05/31 00:58:12;;;;;;;2.88;2.67;;;20.20;55.60;;;;;;5053800;28;20182;-64
2021/05/31 01:00:38;;;;;;;3.10;2.85;;;20.20;55.70;;;;;;5054250;28;20199;-64
2021/05/31 01:03:04;;;;;;;3.20;2.90;;;20.10;55.60;;;;;;5054053;28;20673;-64
2021/05/31 01:05:30;;;;;;;3.25;2.95;;;20.10;55.60;;;;;;5053469;28;20179;-65
2021/05/31 01:08:00;;;;;;;3.20;2.90;;;20.10;55.60;;;;;;5053808;28;20182;-66
2021/05/31 01:10:38;;;;;;;3.45;3.15;;;20.20;55.60;;;;;;5054248;28;20190;-65
2021/05/31 01:13:07;;;;;;;2.92;2.72;;;20.10;55.60;;;;;;5036382;28;20629;-65
2021/05/31 01:15:39;;;;;;;3.28;3.03;;;20.10;55.60;;;;;;5036291;28;20638;-64
2021/05/31 01:18:12;;;;;;;3.08;2.80;;;20.20;55.70;;;;;;5036093;28;20175;-64
2021/05/31 01:20:56;;;;;;;3.63;3.33;;;20.10;55.70;;;;;;5035243;28;20218;-64
2021/05/31 01:23:23;;;;;;;3.13;2.88;;;20.10;55.60;;;;;;5037431;28;20230;-64
2021/05/31 01:26:08;;;;;;;3.40;3.10;;;20.10;55.60;;;;;;5034979;28;20680;-63
2021/05/31 01:28:43;;;;;;;3.20;2.90;;;20.10;55.70;;;;;;5053427;28;20187;-64
2021/05/31 01:31:08;;;;;;;3.00;2.80;;;20.10;55.70;;;;;;5053556;28;20640;-64
2021/05/31 01:33:34;;;;;;;3.00;2.80;;;20.10;55.70;;;;;;5034980;28;20175;-64
2021/05/31 01:36:00;;;;;;;3.22;2.92;;;20.10;55.70;;;;;;5035867;28;20257;-65
2021/05/31 01:38:25;;;;;;;2.90;2.70;;;20.10;55.70;;;;;;5035913;28;20365;-64
2021/05/31 01:40:51;;;;;;;3.20;2.90;;;20.10;55.70;;;;;;5034571;28;20168;-64
2021/05/31 01:43:16;;;;;;;3.10;2.88;;;20.10;55.80;;;;;;5035602;28;20272;-65
2021/05/31 01:45:42;;;;;;;3.20;3.00;;;20.10;55.70;;;;;;5035242;28;20246;-65
2021/05/31 01:48:09;;;;;;;2.88;2.67;;;20.10;55.80;;;;;;5035159;28;20175;-64
2021/05/31 01:50:34;;;;;;;3.38;3.10;;;20.10;55.70;;;;;;5035654;28;20171;-65
2021/05/31 01:53:00;;;;;;;2.88;2.67;;;20.10;55.70;;;;;;5035394;28;20178;-65
2021/05/31 01:55:25;;;;;;;2.70;2.60;;;20.00;55.70;;;;;;5034718;28;20570;-65
2021/05/31 01:57:51;;;;;;;3.13;2.88;;;20.10;55.80;;;;;;5052738;28;20184;-64
2021/05/31 02:00:17;;;;;;;2.90;2.70;;;20.10;55.80;;;;;;5053029;28;20172;-63
2021/05/31 02:02:42;;;;;;;2.78;2.58;;;20.10;55.80;;;;;;5052153;28;20693;-64
2021/05/31 02:05:09;;;;;;;4.25;3.33;;;20.00;55.80;;;;;;5035351;28;20171;-65
2021/05/31 02:07:37;;;;;;;3.10;2.80;;;20.00;55.80;;;;;;5052688;28;20254;-65
2021/05/31 02:10:04;;;;;;;2.95;2.75;;;20.10;55.80;;;;;;5052157;28;20175;-65
2021/05/31 02:12:31;;;;;;;3.03;2.83;;;20.00;55.80;;;;;;5052702;28;20177;-64
2021/05/31 02:15:07;;;;;;;3.33;2.90;;;20.00;55.80;;;;;;5035178;28;20179;-64
2021/05/31 02:17:57;;;;;;;3.28;2.97;;;20.00;55.80;;;;;;5052727;28;20175;-64
2021/05/31 02:20:23;;;;;;;3.28;2.97;;;20.00;55.80;;;;;;5035263;28;20662;-64
2021/05/31 02:22:51;;;;;;;3.20;3.00;;;20.00;55.80;;;;;;5033832;28;20286;-64
2021/05/31 02:25:16;;;;;;;2.88;2.60;;;20.00;55.80;;;;;;5052691;28;20638;-64
2021/05/31 02:27:46;;;;;;;3.40;3.20;;;20.00;55.80;;;;;;5052411;28;20177;-64
2021/05/31 02:30:12;;;;;;;3.10;2.90;;;20.00;55.90;;;;;;5034238;28;20596;-64
2021/05/31 02:32:38;;;;;;;3.22;3.03;;;20.00;55.90;;;;;;5051478;28;20175;-64
2021/05/31 02:35:10;;;;;;;3.55;3.25;;;20.00;55.90;;;;;;5052534;28;20186;-65
2021/05/31 02:37:37;;;;;;;3.50;3.20;;;20.00;55.90;;;;;;5051509;28;20167;-64
2021/05/31 02:40:04;;;;;;;3.33;3.03;;;19.90;55.80;;;;;;5052614;28;20217;-65
2021/05/31 02:42:29;;;;;;;3.28;2.97;;;19.90;55.90;;;;;;5052406;28;20611;-65
2021/05/31 02:44:55;;;;;;;3.78;3.33;;;19.90;55.90;;;;;;5051128;28;20265;-64
2021/05/31 02:47:20;;;;;;;3.17;2.97;;;19.90;55.90;;;;;;5052612;28;20175;-65
2021/05/31 02:49:46;;;;;;;3.58;3.28;;;19.90;55.90;;;;;;5051927;28;20270;-65
2021/05/31 02:52:11;;;;;;;3.30;3.00;;;19.90;55.90;;;;;;5051695;28;20250;-65
2021/05/31 02:54:37;;;;;;;3.85;3.22;;;19.90;55.90;;;;;;5052315;28;20178;-65
2021/05/31 02:57:02;;;;;;;3.05;2.85;;;19.90;55.90;;;;;;5052273;28;20190;-64
2021/05/31 02:59:28;;;;;;;3.33;3.03;;;19.90;55.90;;;;;;5051668;28;20604;-64
2021/05/31 03:01:53;;;;;;;3.60;3.30;;;19.90;55.90;;;;;;5052029;28;20224;-64
2021/05/31 03:04:19;;;;;;;3.75;3.40;;;19.90;55.90;;;;;;5051455;28;20240;-65
2021/05/31 03:06:44;;;;;;;3.60;3.30;;;19.90;56.00;;;;;;5051821;28;20182;-65
2021/05/31 03:09:10;;;;;;;3.65;3.33;;;19.90;56.00;;;;;;5052433;28;20630;-65
2021/05/31 03:11:35;;;;;;;3.42;3.10;;;19.90;56.00;;;;;;5051436;28;20174;-66
2021/05/31 03:14:01;;;;;;;3.35;3.15;;;19.90;56.00;;;;;;5052176;28;20252;-64
2021/05/31 03:16:26;;;;;;;3.15;2.95;;;19.90;56.00;;;;;;5052337;28;20258;-65
2021/05/31 03:18:52;;;;;;;4.40;3.45;;;19.90;56.00;;;;;;5051182;28;20634;-64
2021/05/31 03:21:17;;;;;;;3.67;3.33;;;19.80;56.00;;;;;;5052123;28;20167;-64
2021/05/31 03:23:43;;;;;;;4.15;3.75;;;19.80;56.00;;;;;;5051707;28;20211;-64
2021/05/31 03:26:08;;;;;;;3.20;3.00;;;19.80;56.10;;;;;;5051528;28;20609;-64
2021/05/31 03:28:34;;;;;;;3.60;3.30;;;19.80;56.70;;;;;;5051912;28;20167;-64
2021/05/31 03:30:59;;;;;;;3.47;3.17;;;19.80;56.00;;;;;;5051983;28;20171;-63
2021/05/31 03:33:30;;;;;;;3.40;3.13;;;19.80;56.10;;;;;;5051331;28;20543;-64
2021/05/31 03:35:56;;;;;;;3.67;3.38;;;19.80;56.10;;;;;;5051995;28;20194;-65
2021/05/31 03:38:21;;;;;;;3.35;3.15;;;19.80;56.10;;;;;;5051957;28;20518;-65
2021/05/31 03:40:47;;;;;;;4.07;3.60;;;19.80;56.10;;;;;;5050996;28;20194;-65
2021/05/31 03:43:12;;;;;;;3.58;3.28;;;19.80;56.10;;;;;;5053451;28;20206;-64
2021/05/31 03:45:38;;;;;;;3.30;3.00;;;19.80;56.10;;;;;;5055307;28;20226;-64
2021/05/31 03:48:03;;;;;;;3.80;3.50;;;19.80;56.10;;;;;;5054963;28;20183;-65
2021/05/31 03:50:31;;;;;;;3.42;3.22;;;19.80;56.10;;;;;;5055479;28;20552;-65
2021/05/31 03:52:56;;;;;;;3.97;3.67;;;19.80;56.10;;;;;;5055670;28;20194;-66
2021/05/31 03:55:22;;;;;;;3.38;3.08;;;19.80;56.10;;;;;;5054909;28;20172;-65
2021/05/31 03:57:47;;;;;;;3.83;3.53;;;19.80;56.10;;;;;;5055029;28;20182;-65
2021/05/31 04:00:13;;;;;;;3.63;3.33;;;19.80;56.10;;;;;;5055362;28;20495;-64
2021/05/31 04:02:40;;;;;;;3.75;3.45;;;19.80;56.10;;;;;;5054264;28;20285;-64
2021/05/31 04:05:06;;;;;;;4.20;3.58;;;19.80;56.10;;;;;;5055080;28;20221;-65
2021/05/31 04:13:00;;;;;;;3.83;3.40;;;19.80;56.00;;;;;;5055170;28;20177;-65
2021/05/31 04:15:26;;;;;;;3.70;3.40;;;19.80;56.00;;;;;;5054307;28;20543;-64
2021/05/31 04:17:51;;;;;;;3.95;3.55;;;19.80;55.90;;;;;;5054644;28;20178;-65
2021/05/31 04:20:17;;;;;;;3.72;3.42;;;19.80;55.90;;;;;;5055165;28;20175;-64
2021/05/31 04:22:42;;;;;;;3.95;3.65;;;19.80;56.00;;;;;;5053836;28;20656;-64
2021/05/31 04:25:08;;;;;;;3.63;3.38;;;19.80;55.90;;;;;;5054927;28;20250;-64
2021/05/31 04:27:34;;;;;;;3.70;3.40;;;19.80;55.90;;;;;;5054500;28;20622;-64
2021/05/31 04:29:59;;;;;;;4.15;3.45;;;19.80;55.90;;;;;;5053920;28;20174;-64
2021/05/31 04:32:25;;;;;;;4.13;3.75;;;19.90;56.00;;;;;;5055060;28;20221;-64
2021/05/31 04:34:50;;;;;;;3.90;3.53;;;19.80;55.90;;;;;;5054462;28;20229;-64
2021/05/31 04:37:16;;;;;;;4.05;3.78;;;19.80;55.90;;;;;;5053861;28;20175;-65
2021/05/31 04:39:41;;;;;;;3.88;3.50;;;19.90;55.90;;;;;;5054350;28;20255;-64
2021/05/31 04:42:07;;;;;;;3.47;3.28;;;19.80;55.80;;;;;;5054568;28;20187;-65
2021/05/31 04:44:33;;;;;;;3.83;3.53;;;19.80;55.80;;;;;;5053205;28;20302;-65
2021/05/31 04:46:59;;;;;;;4.22;3.83;;;19.90;55.90;;;;;;5054577;28;20183;-65
2021/05/31 04:49:24;;;;;;;3.50;3.30;;;19.80;55.80;;;;;;5054577;28;20206;-65
2021/05/31 04:51:50;;;;;;;4.05;3.65;;;19.90;55.80;;;;;;5053496;28;20171;-65
2021/05/31 04:54:16;;;;;;;3.55;3.25;;;19.90;55.80;;;;;;5053459;28;20207;-65
2021/05/31 04:56:42;;;;;;;3.30;3.10;;;19.90;55.90;;;;;;5054093;28;20203;-65
2021/05/31 04:59:07;;;;;;;4.93;4.00;;;19.90;55.80;;;;;;5053551;28;20653;-64
2021/05/31 05:01:34;;;;;;;3.45;3.20;;;19.90;55.90;;;;;;5054205;28;20606;-65
2021/05/31 05:04:00;;;;;;;3.63;3.33;;;19.90;55.80;;;;;;5053486;28;20210;-64
2021/05/31 05:06:25;;;;;;;4.32;3.92;;;19.90;55.80;;;;;;5054239;28;20225;-66
2021/05/31 05:08:53;;;;;;;3.47;3.13;;;19.90;55.80;;;;;;5053780;28;20183;-66
2021/05/31 05:11:19;;;;;;;3.80;3.50;;;19.90;55.80;;;;;;5053410;28;20178;-65
2021/05/31 05:13:44;;;;;;;3.70;3.40;;;19.90;55.80;;;;;;5053588;28;20175;-65
2021/05/31 05:16:10;;;;;;;3.53;3.22;;;19.90;55.80;;;;;;5053968;28;20517;-64
2021/05/31 05:18:45;;;;;;;3.53;3.33;;;19.90;55.80;;;;;;5053118;28;20207;-64
2021/05/31 05:21:11;;;;;;;4.10;3.67;;;19.90;55.80;;;;;;5053803;28;20644;-64
2021/05/31 05:23:37;;;;;;;3.53;3.30;;;19.90;55.70;;;;;;5053565;28;20199;-64
2021/05/31 05:26:02;;;;;;;3.40;3.10;;;19.90;55.70;;;;;;5052915;28;20210;-64
2021/05/31 05:28:28;;;;;;;3.53;3.25;;;19.90;55.70;;;;;;5053503;28;20725;-64
2021/05/31 05:30:53;;;;;;;3.42;3.10;;;19.90;55.80;;;;;;5053444;28;20220;-64
2021/05/31 05:33:19;;;;;;;3.75;3.45;;;19.90;55.80;;;;;;5053037;28;20221;-64
2021/05/31 05:35:52;;;;;;;3.42;3.20;;;19.90;55.70;;;;;;5052657;28;20178;-65
2021/05/31 05:43:46;;;;;;;3.92;3.63;;;19.90;55.70;;;;;;5053573;28;20207;-65
2021/05/31 05:48:43;;;;;;;4.75;3.40;;;19.90;55.70;;;;;;5053068;28;20171;-65
2021/05/31 05:51:09;;;;;;;3.70;3.50;;;19.90;55.70;;;;;;5053339;28;20171;-65
2021/05/31 05:53:36;;;;;;;4.00;3.70;;;19.90;55.70;;;;;;5052237;28;20184;-65
2021/05/31 05:56:02;;;;;;;3.38;3.13;;;19.90;55.70;;;;;;5053265;28;20176;-65
2021/05/31 05:58:29;;;;;;;3.60;3.33;;;19.90;55.70;;;;;;5053284;28;20656;-65
2021/05/31 06:00:55;;;;;;;3.53;3.25;;;19.90;55.70;;;;;;5052118;28;20232;-63
2021/05/31 06:03:21;;;;;;;3.50;3.20;;;19.90;55.70;;;;;;5053111;28;20234;-64
2021/05/31 06:05:46;;;;;;;3.40;3.17;;;19.90;55.80;;;;;;5052219;28;20520;-65
2021/05/31 06:08:12;;;;;;;3.28;3.08;;;19.90;55.70;;;;;;5052502;28;20199;-66
2021/05/31 06:10:37;;;;;;;3.45;3.22;;;19.90;55.70;;;;;;5052749;28;20186;-67
2021/05/31 06:13:03;;;;;;;3.50;3.20;;;19.90;55.80;;;;;;5052714;28;20392;-65
2021/05/31 06:15:28;;;;;;;3.97;3.70;;;19.90;55.80;;;;;;5052327;28;20707;-64
2021/05/31 06:17:54;;;;;;;3.95;3.60;;;19.90;55.80;;;;;;5052390;28;20183;-64
2021/05/31 06:20:19;;;;;;;3.33;3.13;;;19.90;55.80;;;;;;5052693;28;20217;-65
2021/05/31 06:22:45;;;;;;;3.53;3.25;;;20.00;55.80;;;;;;5051806;28;20712;-65
2021/05/31 06:25:10;;;;;;;3.47;3.28;;;20.00;55.80;;;;;;5052908;28;20179;-64
2021/05/31 06:27:36;;;;;;;3.58;3.28;;;20.00;55.80;;;;;;5052456;28;20546;-64
2021/05/31 06:30:03;;;;;;;3.72;3.42;;;20.00;55.80;;;;;;5051842;28;20175;-64
2021/05/31 06:32:29;;;;;;;4.18;3.40;;;20.00;56.00;;;;;;5052592;28;20254;-63
2021/05/31 06:34:54;;;;;;;3.75;3.45;;;20.00;56.00;;;;;;5052303;28;20649;-64
2021/05/31 06:37:20;;;;;;;3.92;3.60;;;20.00;56.00;;;;;;5052105;28;20171;-65
2021/05/31 06:39:45;;;;;;;4.95;3.70;;;20.00;56.10;;;;;;5052386;28;20170;-64
2021/05/31 06:42:11;;;;;;;7.70;4.88;;;20.00;56.10;;;;;;5052660;28;20202;-64
2021/05/31 06:44:37;;;;;;;5.35;4.70;;;20.00;56.10;;;;;;5050905;28;20636;-63
2021/05/31 06:47:03;;;;;;;4.90;4.50;;;20.00;56.10;;;;;;5052366;28;20183;-64
2021/05/31 06:49:28;;;;;;;8.13;4.00;;;20.00;56.10;;;;;;5051406;28;20175;-64
2021/05/31 06:51:54;;;;;;;5.10;4.07;;;20.00;56.20;;;;;;5052198;28;20174;-65
2021/05/31 06:54:19;;;;;;;7.60;5.05;;;20.10;56.10;;;;;;5052729;28;20167;-65
2021/05/31 06:56:45;;;;;;;8.32;4.20;;;20.10;56.10;;;;;;5051672;28;20170;-64
2021/05/31 06:59:10;;;;;;;7.20;4.47;;;20.00;56.10;;;;;;5034766;28;20653;-64
2021/05/31 07:01:36;;;;;;;5.00;4.50;;;20.10;56.20;;;;;;5052057;28;20171;-64
2021/05/31 07:04:01;;;;;;;7.35;3.92;;;20.10;56.20;;;;;;5051285;28;20214;-65
2021/05/31 07:06:28;;;;;;;5.60;4.28;;;20.10;56.10;;;;;;5052219;28;20179;-65
2021/05/31 07:08:54;;;;;;;8.73;4.43;;;20.10;56.10;;;;;;5034118;28;20229;-65
2021/05/31 07:11:22;;;;;;;5.80;4.28;;;20.10;56.10;;;;;;5051713;28;20583;-65
2021/05/31 07:13:48;;;;;;;4.88;4.35;;;20.10;56.10;;;;;;5051685;28;20560;-64
2021/05/31 07:16:14;;;;;;;4.22;3.88;;;20.10;56.10;;;;;;5051853;28;20172;-64
2021/05/31 07:18:39;;;;;;;5.22;4.57;;;20.10;56.10;;;;;;5053421;28;20575;-65
2021/05/31 07:21:05;;;;;;;4.72;4.30;;;20.10;56.10;;;;;;5056192;28;20184;-64
2021/05/31 07:23:30;;;;;;;5.25;4.63;;;20.10;56.10;;;;;;5056204;28;20221;-64
2021/05/31 07:25:56;;;;;;;4.65;3.95;;;20.10;56.10;;;;;;5055328;28;20171;-63
2021/05/31 07:28:21;;;;;;;5.38;4.75;;;20.20;56.20;;;;;;5056072;28;20179;-63
2021/05/31 07:30:47;;;;;;;5.05;4.63;;;20.20;56.10;;;;;;5055424;28;20171;-65
2021/05/31 07:33:13;;;;;;;7.55;4.15;;;20.20;56.10;;;;;;5055250;28;20634;-64
2021/05/31 07:35:39;;;;;;;5.13;4.38;;;20.20;56.10;;;;;;5055427;28;20258;-65
2021/05/31 07:38:04;;;;;;;5.97;4.38;;;20.20;56.10;;;;;;5055585;28;20266;-65
2021/05/31 07:40:30;;;;;;;4.05;3.67;;;20.20;56.10;;;;;;5055171;28;20184;-64
2021/05/31 07:42:56;;;;;;;5.05;4.63;;;20.20;56.10;;;;;;5055550;28;20199;-64
2021/05/31 07:45:21;;;;;;;4.47;4.15;;;20.30;56.20;;;;;;5055459;28;20317;-64
2021/05/31 07:47:47;;;;;;;5.00;4.10;;;20.20;56.20;;;;;;5054364;28;20171;-65
2021/05/31 07:50:14;;;;;;;5.35;4.10;;;20.30;56.20;;;;;;5055752;28;20614;-65
2021/05/31 07:52:39;;;;;;;4.28;3.95;;;20.30;56.20;;;;;;5054647;28;20179;-66
2021/05/31 07:55:07;;;;;;;5.18;4.18;;;20.30;56.20;;;;;;5055576;28;20182;-65
2021/05/31 07:57:33;;;;;;;4.40;3.92;;;20.30;56.20;;;;;;5055247;28;20179;-65
2021/05/31 07:59:59;;;;;;;5.90;5.07;;;20.30;56.20;;;;;;5054742;28;20194;-64
2021/05/31 08:02:24;;;;;;;4.68;4.07;;;20.30;56.20;;;;;;5055127;28;20538;-64
2021/05/31 08:04:50;;;;;;;4.88;4.38;;;20.30;56.20;;;;;;5055236;28;20539;-65
2021/05/31 08:07:15;;;;;;;6.35;4.15;;;20.30;56.20;;;;;;5054744;28;20183;-65
2021/05/31 08:09:41;;;;;;;5.60;4.20;;;20.30;56.20;;;;;;5054890;28;20179;-65
2021/05/31 08:12:07;;;;;;;5.18;4.30;;;20.30;56.20;;;;;;5055203;28;20170;-65
2021/05/31 08:14:33;;;;;;;4.82;4.28;;;20.40;56.30;;;;;;5054161;28;20175;-64
2021/05/31 08:16:58;;;;;;;5.43;4.78;;;20.40;56.30;;;;;;5054913;28;20177;-64
2021/05/31 08:19:30;;;;;;;6.38;4.20;;;20.40;56.30;;;;;;5054997;28;20178;-64
2021/05/31 08:21:55;;;;;;;4.32;4.03;;;20.40;56.20;;;;;;5054342;28;20226;-64
2021/05/31 08:24:21;;;;;;;5.53;4.10;;;20.40;56.20;;;;;;5054888;28;20760;-64
2021/05/31 08:26:46;;;;;;;4.03;3.78;;;20.40;56.20;;;;;;5054710;28;20254;-64
2021/05/31 08:29:12;;;;;;;6.05;4.15;;;20.40;56.20;;;;;;5054167;28;20232;-64
2021/05/31 08:31:38;;;;;;;5.68;3.80;;;20.40;56.20;;;;;;5054360;28;20506;-65
2021/05/31 08:34:03;;;;;;;3.97;3.67;;;20.50;56.30;;;;;;5054901;28;20183;-64
2021/05/31 08:36:29;;;;;;;4.30;4.00;;;20.50;56.20;;;;;;5054187;28;20261;-66
2021/05/31 08:39:00;;;;;;;4.38;4.00;;;20.50;56.20;;;;;;5054508;28;20221;-65
2021/05/31 08:41:26;;;;;;;4.05;3.65;;;20.50;56.20;;;;;;5054766;28;20511;-65
2021/05/31 08:43:52;;;;;;;4.30;3.88;;;20.50;56.20;;;;;;5053248;28;20285;-65
2021/05/31 08:46:17;;;;;;;4.40;4.03;;;20.50;56.20;;;;;;5054446;28;20311;-65
2021/05/31 08:48:43;;;;;;;6.05;4.38;;;20.60;56.20;;;;;;5054648;28;20634;-66
2021/05/31 08:51:08;;;;;;;4.32;3.90;;;20.60;56.20;;;;;;5035965;28;20182;-65
2021/05/31 08:53:35;;;;;;;3.97;3.72;;;20.60;56.20;;;;;;5054231;28;20179;-65
2021/05/31 08:56:01;;;;;;;4.75;4.35;;;20.60;56.20;;;;;;5053675;28;20259;-65
2021/05/31 08:58:26;;;;;;;5.15;3.95;;;20.60;56.20;;;;;;5054480;28;20246;-64
2021/05/31 09:00:52;;;;;;;5.55;4.38;;;20.60;56.20;;;;;;5053756;28;20536;-64
2021/05/31 09:03:17;;;;;;;4.57;4.10;;;20.60;56.20;;;;;;5053445;28;20211;-64
2021/05/31 09:05:43;;;;;;;4.43;4.10;;;20.60;56.20;;;;;;5054019;28;20175;-65
2021/05/31 09:08:19;;;;;;;4.32;3.92;;;20.60;56.20;;;;;;5054179;28;20179;-65
2021/05/31 09:10:55;;;;;;;4.50;4.20;;;20.60;56.20;;;;;;5052996;28;20544;-65
2021/05/31 09:13:32;;;;;;;4.30;3.90;;;20.70;56.20;;;;;;5054044;28;20248;-64
2021/05/31 09:16:26;;;;;;;4.32;3.92;;;20.70;56.20;;;;;;5054083;28;20177;-64
2021/05/31 09:18:52;;;;;;;4.88;4.38;;;20.70;56.20;;;;;;5052893;28;20185;-64
2021/05/31 09:21:22;;;;;;;5.35;4.53;;;20.70;56.20;;;;;;5053981;28;20238;-65
2021/05/31 09:23:55;;;;;;;4.93;4.43;;;20.80;56.20;;;;;;5053339;28;20689;-64
2021/05/31 09:26:21;;;;;;;4.15;3.75;;;20.80;56.20;;;;;;5052963;28;20175;-63
2021/05/31 09:29:13;;;;;;;4.25;3.95;;;20.80;56.20;;;;;;5053500;28;20190;-63
2021/05/31 09:31:38;;;;;;;4.47;4.07;;;20.80;56.80;;;;;;5048751;28;20332;-64
2021/05/31 09:34:05;;;;;;;4.35;4.05;;;20.80;56.20;;;;;;5053448;28;20696;-64
2021/05/31 09:36:32;;;;;;;4.32;3.92;;;20.80;56.20;;;;;;5053524;28;20206;-65
2021/05/31 09:38:58;;;;;;;4.88;4.10;;;20.80;56.20;;;;;;5052629;28;20625;-64
2021/05/31 09:41:24;;;;;;;4.95;4.53;;;20.90;56.20;;;;;;5052988;28;20167;-64
2021/05/31 09:44:06;;;;;;;4.80;4.40;;;20.90;56.20;;;;;;5053039;28;20301;-64
2021/05/31 09:46:42;;;;;;;4.22;3.75;;;20.90;56.20;;;;;;5052125;28;20807;-65
2021/05/31 09:49:14;;;;;;;4.78;4.32;;;20.90;56.20;;;;;;5053390;28;20167;-65
2021/05/31 09:51:51;;;;;;;4.97;4.55;;;20.90;56.80;;;;;;5053280;28;20183;-66
2021/05/31 09:54:45;;;;;;;4.70;4.30;;;20.90;56.10;;;;;;5052478;28;20642;-65
2021/05/31 09:57:19;;;;;;;4.38;3.97;;;20.90;56.10;;;;;;5053041;28;20546;-65
2021/05/31 09:59:57;;;;;;;4.78;4.38;;;21.00;56.20;;;;;;5052189;28;20186;-65
2021/05/31 10:02:48;;;;;;;6.40;4.78;;;21.00;56.20;;;;;;5053317;28;20167;-64
2021/05/31 10:07:54;;;;;;;4.68;4.30;;;21.00;56.20;;;;;;5051859;28;20563;-66
2021/05/31 10:10:20;;;;;;;4.85;4.45;;;21.00;56.20;;;;;;5036257;28;20183;-65
2021/05/31 10:12:49;;;;;;;4.95;4.15;;;21.00;56.20;;;;;;5052634;28;20184;-64
2021/05/31 10:15:19;;;;;;;4.45;4.15;;;21.00;56.20;;;;;;5052193;28;20213;-65
2021/05/31 10:17:47;;;;;;;4.60;4.20;;;21.00;56.20;;;;;;5035292;28;20175;-65
2021/05/31 10:20:12;;;;;;;5.10;4.60;;;21.10;56.20;;;;;;5052675;28;20657;-64
2021/05/31 10:22:38;;;;;;;4.50;4.20;;;21.10;56.20;;;;;;5051913;28;20179;-64
2021/05/31 10:25:05;;;;;;;4.68;4.28;;;21.10;56.20;;;;;;5035071;28;20257;-64
2021/05/31 10:27:32;;;;;;;4.70;4.38;;;21.10;56.20;;;;;;5033996;28;20513;-64
2021/05/31 10:29:58;;;;;;;7.95;4.65;;;21.10;56.20;;;;;;5018306;28;20278;-64
2021/05/31 10:32:25;;;;;;;4.18;3.72;;;21.10;56.20;;;;;;5034807;28;20664;-65
2021/05/31 10:34:52;;;;;;;5.38;4.88;;;21.10;56.20;;;;;;5051959;28;20186;-65
2021/05/31 10:37:24;;;;;;;4.93;4.53;;;21.20;56.30;;;;;;5052810;28;20215;-65
2021/05/31 10:40:16;;;;;;;4.70;4.38;;;21.20;56.30;;;;;;5052342;28;20175;-65
2021/05/31 10:42:42;;;;;;;5.05;4.53;;;21.20;56.30;;;;;;5047603;28;20183;-65
2021/05/31 10:45:19;;;;;;;5.18;4.72;;;21.20;56.20;;;;;;5052155;28;20237;-65
2021/05/31 10:48:15;;;;;;;5.55;4.85;;;21.20;56.30;;;;;;5052369;28;20183;-66
2021/05/31 10:50:51;;;;;;;4.70;4.25;;;21.20;56.30;;;;;;5049995;28;20576;-66
2021/05/31 10:53:17;;;;;;;4.90;4.50;;;21.20;56.30;;;;;;5051441;28;20680;-65
2021/05/31 10:56:18;;;;;;;5.10;4.70;;;21.20;56.20;;;;;;5051184;28;20167;-65
2021/05/31 10:58:47;;;;;;;5.28;4.78;;;21.30;56.30;;;;;;5051805;28;20171;-64
2021/05/31 11:01:42;;;;;;;5.10;4.43;;;21.30;56.20;;;;;;5051903;28;20179;-64
2021/05/31 11:04:19;;;;;;;5.85;5.28;;;21.30;56.20;;;;;;5029792;28;20262;-65
2021/05/31 11:06:45;;;;;;;4.63;4.18;;;21.30;56.20;;;;;;5051932;28;20177;-66
2021/05/31 11:09:12;;;;;;;5.03;4.63;;;21.30;56.20;;;;;;5052323;28;20179;-66
2021/05/31 11:11:48;;;;;;;6.22;5.20;;;21.30;56.30;;;;;;5051491;28;20302;-68
2021/05/31 11:14:14;;;;;;;4.20;3.80;;;21.40;56.20;;;;;;5035116;28;20257;-67
2021/05/31 11:16:54;;;;;;;5.00;4.60;;;21.40;56.10;;;;;;5051440;28;20206;-68
2021/05/31 11:19:37;;;;;;;4.97;4.32;;;21.40;56.10;;;;;;5052308;28;20185;-67
2021/05/31 11:22:25;;;;;;;5.78;4.43;;;21.40;56.10;;;;;;5052088;28;20676;-67
2021/05/31 11:24:59;;;;;;;4.80;4.43;;;21.50;56.10;;;;;;5051084;28;20219;-67
2021/05/31 11:27:38;;;;;;;6.63;4.65;;;21.50;56.20;;;;;;5051983;28;20684;-67
2021/05/31 11:30:22;;;;;;;5.75;5.25;;;21.50;56.20;;;;;;5052037;28;20183;-67
2021/05/31 11:32:47;;;;;;;5.05;4.60;;;21.50;56.10;;;;;;5051187;28;20190;-68
2021/05/31 11:35:14;;;;;;;5.20;4.80;;;21.60;56.30;;;;;;5051963;28;20767;-64
2021/05/31 11:37:43;;;;;;;5.80;4.88;;;21.60;56.30;;;;;;5051333;28;20229;-68
2021/05/31 11:40:16;;;;;;;7.97;5.10;;;21.50;56.20;;;;;;5052232;28;20190;-67
2021/05/31 11:42:45;;;;;;;6.22;4.97;;;21.50;56.10;;;;;;5051553;28;20171;-66
2021/05/31 11:45:11;;;;;;;5.32;4.82;;;21.50;56.10;;;;;;5033338;28;20231;-65
2021/05/31 11:47:37;;;;;;;4.50;4.10;;;21.50;56.10;;;;;;5051726;28;20171;-66
2021/05/31 11:50:03;;;;;;;5.93;4.60;;;21.50;56.00;;;;;;5052054;28;20189;-67
2021/05/31 11:52:29;;;;;;;5.00;4.60;;;21.60;56.00;;;;;;5051161;28;20642;-67
2021/05/31 11:54:54;;;;;;;5.20;4.80;;;21.50;55.90;;;;;;5051496;28;20182;-68
2021/05/31 11:57:21;;;;;;;4.85;4.28;;;21.60;56.00;;;;;;5051844;28;20229;-67
2021/05/31 11:59:48;;;;;;;5.25;4.75;;;21.60;55.90;;;;;;5050946;28;20254;-66
2021/05/31 12:02:15;;;;;;;6.00;5.13;;;21.60;55.80;;;;;;5051839;28;20180;-66
2021/05/31 12:04:47;;;;;;;5.10;4.60;;;21.60;55.80;;;;;;5053621;28;20354;-67
2021/05/31 12:07:18;;;;;;;5.50;5.00;;;21.60;55.80;;;;;;5054534;28;20179;-67
2021/05/31 12:09:44;;;;;;;5.25;4.38;;;21.60;55.80;;;;;;5055045;28;20175;-68
2021/05/31 12:12:10;;;;;;;5.53;5.03;;;21.60;55.70;;;;;;5055257;28;20263;-66
2021/05/31 12:14:45;;;;;;;5.95;5.20;;;21.60;55.70;;;;;;5054070;28;20652;-67
2021/05/31 12:17:11;;;;;;;5.95;4.95;;;21.60;55.60;;;;;;5055273;28;20178;-66
2021/05/31 12:19:36;;;;;;;5.30;4.60;;;21.60;55.60;;;;;;5054906;28;20536;-67
2021/05/31 12:22:02;;;;;;;5.00;4.50;;;21.60;55.60;;;;;;5054230;28;20175;-66
2021/05/31 12:24:29;;;;;;;5.25;4.75;;;21.60;55.50;;;;;;5055130;28;20218;-65
2021/05/31 12:26:56;;;;;;;5.35;4.68;;;21.60;55.40;;;;;;5053859;28;20204;-66
2021/05/31 12:29:32;;;;;;;5.68;5.13;;;21.60;55.40;;;;;;5055108;28;20183;-66
2021/05/31 12:31:57;;;;;;;8.55;5.05;;;21.60;55.30;;;;;;5054922;28;20170;-67
2021/05/31 12:34:24;;;;;;;6.05;5.55;;;21.60;55.40;;;;;;5054211;28;20630;-68
2021/05/31 12:36:50;;;;;;;5.35;4.88;;;21.60;55.30;;;;;;5054314;28;20541;-67
2021/05/31 12:39:15;;;;;;;7.72;5.40;;;21.60;55.20;;;;;;5054803;28;20171;-67
2021/05/31 12:41:42;;;;;;;5.50;4.95;;;21.70;55.20;;;;;;5035842;28;20254;-67
2021/05/31 12:44:08;;;;;;;6.30;4.88;;;21.70;55.10;;;;;;5036350;28;20207;-67
2021/05/31 12:46:40;;;;;;;5.50;5.00;;;21.70;55.00;;;;;;5054223;28;20744;-67
2021/05/31 12:49:06;;;;;;;5.95;5.28;;;21.70;54.90;;;;;;5053852;28;20183;-66
2021/05/31 12:51:32;;;;;;;6.57;4.70;;;21.70;54.90;;;;;;5054271;28;20259;-68
2021/05/31 12:54:01;;;;;;;6.40;5.20;;;21.70;54.90;;;;;;5054481;28;20187;-67
2021/05/31 12:56:30;;;;;;;6.85;5.22;;;21.80;54.90;;;;;;5053616;28;20202;-67
2021/05/31 12:59:05;;;;;;;5.75;5.20;;;21.90;54.90;;;;;;5054260;28;20222;-67
2021/05/31 13:01:31;;;;;;;5.22;4.80;;;21.90;54.70;;;;;;5054195;28;20174;-67
2021/05/31 13:03:57;;;;;;;5.78;5.20;;;21.90;54.60;;;;;;5053496;28;20207;-68
2021/05/31 13:06:33;;;;;;;6.28;4.88;;;22.00;54.50;;;;;;5054275;28;20167;-68
2021/05/31 13:08:58;;;;;;;5.60;5.20;;;22.00;54.40;;;;;;5036088;28;20671;-68